Time;durP1;ratioP1;P1;durP2;ratioP2;P2;SDS_P1;SDS_P2;PMS_P1;PMS_P2;Temp;Humidity;BMP_temperature;BMP_pressure;BME280_temperature;BME280_humidity;BME280_pressure;Samples;Min_cycle;Max_cycle;Signal;HPM_P1;HPM_P2
2021/09/10 00:03:06;;;;;;;3.55;2.47;;;;;;;20.67;51.52;100046.64;2666871;88;21015;-69
2021/09/10 00:07:09;;;;;;;6.65;2.65;;;;;;;20.67;51.50;100048.00;2666697;89;21027;-69
2021/09/10 00:11:13;;;;;;;6.00;1.95;;;;;;;20.66;51.45;100049.03;2643018;89;21083;-69
2021/09/10 00:15:17;;;;;;;3.42;2.17;;;;;;;20.67;51.57;100052.05;2667534;89;21058;-69
2021/09/10 00:19:20;;;;;;;2.25;2.05;;;;;;;20.68;51.45;100042.91;2670820;87;21059;-69
2021/09/10 00:23:23;;;;;;;3.65;2.50;;;;;;;20.69;51.30;100042.38;2675244;88;21684;-68
2021/09/10 00:27:25;;;;;;;5.50;1.45;;;;;;;20.66;51.32;100036.87;2648131;89;21034;-69
2021/09/10 00:31:26;;;;;;;10.20;2.25;;;;;;;20.64;51.45;100047.05;2658915;89;21099;-68
2021/09/10 00:35:30;;;;;;;2.72;2.17;;;;;;;20.64;51.54;100042.14;2641383;90;21610;-69
2021/09/10 00:39:33;;;;;;;3.60;1.87;;;;;;;20.62;51.62;100043.68;2641074;88;21685;-69
2021/09/10 00:43:36;;;;;;;3.72;2.35;;;;;;;20.58;51.56;100045.11;2640860;89;21121;-69
2021/09/10 00:47:41;;;;;;;7.08;2.62;;;;;;;20.57;51.72;100038.05;2640639;89;21044;-69
2021/09/10 00:51:43;;;;;;;3.70;1.90;;;;;;;20.55;51.68;100035.56;2640582;88;21007;-70
2021/09/10 00:55:46;;;;;;;4.25;1.77;;;;;;;20.52;51.67;100033.22;2641839;84;21089;-68
2021/09/10 00:59:50;;;;;;;4.72;2.35;;;;;;;20.52;51.60;100037.81;2640722;86;21357;-68
2021/09/10 01:03:54;;;;;;;4.12;2.45;;;;;;;20.49;51.73;100035.51;2775550;81;21089;-68
2021/09/10 01:08:00;;;;;;;4.55;2.50;;;;;;;20.45;51.82;100032.89;2829276;83;21018;-68
2021/09/10 01:12:02;;;;;;;;;;;;;;;20.42;51.76;100042.21;2844962;83;20997;-68
2021/09/10 01:16:05;;;;;;;2.80;1.95;;;;;;;20.43;51.73;100063.28;2843795;82;20575;-68
2021/09/10 01:20:09;;;;;;;2.50;1.87;;;;;;;20.32;52.68;100066.02;2842841;83;21041;-68
2021/09/10 01:24:11;;;;;;;7.90;2.45;;;;;;;20.05;53.20;100072.05;2843411;83;21056;-68
2021/09/10 01:28:15;;;;;;;4.90;2.92;;;;;;;19.89;52.80;100073.09;2843028;83;20985;-68
2021/09/10 01:32:19;;;;;;;5.37;2.17;;;;;;;19.85;53.08;100069.11;2843152;83;21028;-69
2021/09/10 01:36:21;;;;;;;6.10;2.17;;;;;;;19.80;53.86;100062.11;2843153;83;21085;-69
2021/09/10 01:40:24;;;;;;;5.35;2.05;;;;;;;19.72;54.00;100050.92;2842181;83;21029;-68
2021/09/10 01:44:25;;;;;;;2.80;2.00;;;;;;;19.70;54.12;100048.41;2843137;83;21072;-69
2021/09/10 01:48:28;;;;;;;2.92;2.55;;;;;;;19.70;54.13;100042.19;2842782;83;21064;-69
2021/09/10 01:52:31;;;;;;;5.47;2.40;;;;;;;19.70;53.97;100036.27;2843171;83;21033;-68
2021/09/10 01:56:34;;;;;;;6.00;2.45;;;;;;;19.75;54.07;100037.05;2842885;83;21045;-68
2021/09/10 02:00:35;;;;;;;3.67;2.58;;;;;;;19.81;53.72;100039.49;2843324;83;20977;-68
2021/09/10 02:04:39;;;;;;;3.17;1.92;;;;;;;19.87;53.94;100040.06;2843168;83;20999;-68
2021/09/10 02:08:41;;;;;;;4.97;2.10;;;;;;;19.89;53.83;100047.98;2843057;83;21033;-68
2021/09/10 02:12:43;;;;;;;8.00;2.95;;;;;;;19.88;53.88;100051.70;2842900;82;21049;-69
2021/09/10 02:16:45;;;;;;;8.80;2.60;;;;;;;19.87;53.88;100052.20;2843097;83;21065;-69
2021/09/10 02:20:47;;;;;;;4.90;1.72;;;;;;;19.84;54.11;100061.51;2842680;83;21053;-69
2021/09/10 02:24:49;;;;;;;7.87;2.92;;;;;;;19.80;53.95;100065.62;2843088;83;20962;-68
2021/09/10 02:28:53;;;;;;;5.80;2.70;;;;;;;19.73;54.24;100071.48;2843034;83;21073;-68
2021/09/10 02:32:55;;;;;;;7.30;2.15;;;;;;;19.52;54.86;100077.17;2842647;83;21068;-68
2021/09/10 02:36:57;;;;;;;3.40;2.75;;;;;;;19.33;55.42;100077.77;2843439;83;20989;-69
2021/09/10 02:40:59;;;;;;;53.35;6.47;;;;;;;19.15;56.12;100064.67;2843080;83;21032;-69
2021/09/10 02:45:02;;;;;;;34.45;5.60;;;;;;;18.95;56.65;100065.21;2842938;83;21041;-68
2021/09/10 02:49:06;;;;;;;14.73;3.37;;;;;;;18.81;56.72;100060.16;2843098;83;21033;-68
2021/09/10 02:53:08;;;;;;;8.18;2.70;;;;;;;18.74;56.96;100056.54;2843199;83;21029;-68
2021/09/10 02:57:09;;;;;;;17.35;2.65;;;;;;;18.68;56.93;100058.11;2843217;83;21017;-68
2021/09/10 03:01:11;;;;;;;4.20;2.10;;;;;;;18.64;56.97;100063.02;2842932;83;21056;-68
2021/09/10 03:05:15;;;;;;;5.80;2.20;;;;;;;18.63;56.91;100070.78;2842600;83;21068;-68
2021/09/10 03:09:18;;;;;;;4.30;2.37;;;;;;;18.59;57.77;100067.31;2842617;83;21037;-68
2021/09/10 03:13:20;;;;;;;7.28;2.83;;;;;;;18.41;58.26;100062.58;2842684;83;21033;-68
2021/09/10 03:17:22;;;;;;;13.18;3.62;;;;;;;18.27;58.98;100056.15;2842930;83;21013;-74
2021/09/10 03:21:24;;;;;;;5.95;2.72;;;;;;;18.15;59.34;100066.19;2843824;83;21021;-73
2021/09/10 03:25:28;;;;;;;4.95;3.45;;;;;;;18.06;59.34;100062.20;2844052;83;21037;-73
2021/09/10 03:29:30;;;;;;;17.07;4.28;;;;;;;18.01;59.99;100057.84;2862174;80;21033;-73
2021/09/10 03:33:32;;;;;;;11.10;3.90;;;;;;;17.92;59.90;100062.98;2892476;81;21051;-73
2021/09/10 03:37:33;;;;;;;9.13;3.70;;;;;;;17.83;60.35;100050.09;2892871;81;21029;-72
2021/09/10 03:41:36;;;;;;;42.48;11.28;;;;;;;17.74;60.92;100046.63;2892368;82;20994;-73
2021/09/10 03:45:38;;;;;;;7.85;3.35;;;;;;;17.62;61.60;100045.34;2892922;82;20998;-73
2021/09/10 03:49:40;;;;;;;5.83;3.67;;;;;;;17.41;61.84;100040.09;2891727;81;21084;-73
2021/09/10 03:53:43;;;;;;;14.18;3.92;;;;;;;17.29;62.04;100043.69;2893046;82;21029;-73
2021/09/10 03:57:45;;;;;;;4.05;3.27;;;;;;;17.24;62.19;100041.52;2893349;82;21072;-73
2021/09/10 04:01:49;;;;;;;6.95;3.45;;;;;;;17.21;62.31;100047.77;2892895;81;21001;-73
2021/09/10 04:05:52;;;;;;;;;;;;;;;17.18;62.62;100047.61;2868879;82;21117;-73
2021/09/10 04:09:55;;;;;;;7.53;4.20;;;;;;;17.16;63.06;100048.29;2893502;81;20099;-74
2021/09/10 04:40:00;;;;;;;4.72;2.52;;;;;;;16.92;63.85;100041.98;2906674;81;21063;-57
2021/09/10 04:44:03;;;;;;;3.27;2.70;;;;;;;16.95;64.02;100047.00;2919368;81;21253;-59
2021/09/10 04:48:05;;;;;;;5.35;3.10;;;;;;;16.97;64.20;100053.03;2919749;81;21003;-57
2021/09/10 04:52:07;;;;;;;7.78;3.15;;;;;;;17.16;64.78;100049.63;2891749;81;21012;-62
2021/09/10 04:56:19;;;;;;;3.62;2.47;;;;;;;17.72;64.10;100056.72;2919601;81;20933;-58
2021/09/10 05:00:22;;;;;;;4.75;2.90;;;;;;;18.37;63.07;100056.38;2919662;81;21023;-58
2021/09/10 05:04:26;;;;;;;6.95;2.80;;;;;;;19.07;62.07;100057.55;2892026;82;21048;-57
2021/09/10 05:08:30;;;;;;;6.05;3.30;;;;;;;19.72;60.16;100052.27;2919529;81;21158;-59
2021/09/10 05:12:50;;;;;;;3.85;2.45;;;;;;;20.28;59.11;100060.69;2919441;81;21031;-59
2021/09/10 05:16:54;;;;;;;10.63;4.30;;;;;;;20.82;58.38;100061.41;2892314;81;20996;-57
2021/09/10 05:21:17;;;;;;;6.83;3.70;;;;;;;21.46;57.99;100055.03;2884761;79;21003;-57
2021/09/10 05:25:23;;;;;;;8.20;4.30;;;;;;;22.09;56.88;100065.59;2885162;79;20960;-62
2021/09/10 05:29:27;;;;;;;5.30;3.25;;;;;;;22.66;54.63;100062.47;2885251;82;21042;-57
2021/09/10 05:33:30;;;;;;;6.65;4.15;;;;;;;23.03;53.91;100059.77;2884414;82;21015;-58
2021/09/10 05:37:57;;;;;;;8.18;3.33;;;;;;;23.32;53.61;100059.80;2884967;79;21030;-59
2021/09/10 05:42:00;;;;;;;7.83;3.58;;;;;;;23.67;52.25;100059.38;2884233;82;21113;-57
2021/09/10 05:46:12;;;;;;;5.58;2.83;;;;;;;23.86;52.15;100060.00;2884990;82;20941;-57
2021/09/10 05:50:14;;;;;;;6.30;2.60;;;;;;;24.12;51.79;100059.52;2885029;79;21449;-59
2021/09/10 05:54:20;;;;;;;7.10;3.08;;;;;;;24.48;52.20;100062.03;2883870;82;21010;-58
2021/09/10 05:58:45;;;;;;;5.72;2.77;;;;;;;24.83;51.33;100057.44;2885040;82;20936;-61
2021/09/10 06:02:47;;;;;;;3.80;2.35;;;;;;;25.09;50.59;100063.10;2884695;82;20991;-63
2021/09/10 06:07:41;;;;;;;5.08;1.87;;;;;;;25.14;50.96;100067.84;2884721;82;20986;-59
2021/09/10 06:11:43;;;;;;;14.00;3.42;;;;;;;25.12;50.86;100064.52;2884957;82;21033;-58
2021/09/10 06:15:54;;;;;;;8.55;2.65;;;;;;;24.96;50.70;100072.77;2884691;82;21042;-58
2021/09/10 06:19:58;;;;;;;4.70;2.30;;;;;;;24.90;51.06;100064.98;2884581;82;20943;-58
2021/09/10 06:24:01;;;;;;;4.62;2.22;;;;;;;24.90;51.38;100066.34;2884977;79;21007;-61
2021/09/10 06:28:27;;;;;;;7.30;2.98;;;;;;;24.85;51.22;100066.19;2884274;79;20999;-61
2021/09/10 06:32:29;;;;;;;7.93;3.27;;;;;;;24.83;51.65;100068.31;2885191;82;21042;-61
2021/09/10 06:36:38;;;;;;;4.00;2.75;;;;;;;24.90;51.61;100064.98;2884183;79;21046;-60
2021/09/10 06:40:40;;;;;;;9.28;2.83;;;;;;;24.96;51.09;100072.77;2884560;82;21062;-58
2021/09/10 06:44:52;;;;;;;10.13;3.30;;;;;;;25.16;51.20;100068.47;2884677;82;21051;-60
2021/09/10 06:48:54;;;;;;;3.77;2.65;;;;;;;25.22;51.07;100071.63;2884806;79;21010;-60
2021/09/10 06:52:55;;;;;;;7.47;2.47;;;;;;;25.31;51.10;100076.23;2899657;81;20955;-58
2021/09/10 06:56:59;;;;;;;7.92;1.87;;;;;;;25.60;51.12;100074.31;2935447;81;20979;-59
2021/09/10 07:01:06;;;;;;;3.87;2.30;;;;;;;25.72;49.18;100073.81;2923301;79;20974;-60
2021/09/10 07:05:10;;;;;;;10.15;2.85;;;;;;;25.88;50.02;100072.85;2856211;83;21013;-60
2021/09/10 07:09:13;;;;;;;11.83;3.33;;;;;;;26.00;49.60;100078.33;2881647;82;21022;-62
2021/09/10 07:13:15;;;;;;;5.80;3.67;;;;;;;26.00;49.30;100072.88;2880556;82;21018;-59
2021/09/10 07:17:17;;;;;;;6.67;2.47;;;;;;;26.02;48.41;100076.20;2885202;81;20980;-58
2021/09/10 07:21:20;;;;;;;9.15;2.45;;;;;;;26.06;48.76;100078.78;2885524;82;20956;-59
2021/09/10 07:25:23;;;;;;;3.72;1.95;;;;;;;26.13;48.34;100084.09;2885157;79;20968;-58
2021/09/10 07:29:41;;;;;;;8.93;2.60;;;;;;;26.12;48.27;100079.19;2885515;79;20999;-58
2021/09/10 07:33:43;;;;;;;4.83;2.47;;;;;;;26.19;48.68;100079.12;2885243;79;21283;-59
2021/09/10 07:37:47;;;;;;;6.50;2.40;;;;;;;26.24;48.33;100073.78;2884641;79;21081;-59
2021/09/10 07:41:50;;;;;;;5.20;2.05;;;;;;;26.36;48.52;100081.45;2904681;79;20991;-59
2021/09/10 07:45:54;;;;;;;26.62;7.33;;;;;;;26.48;48.41;100079.25;2907081;82;21047;-57
2021/09/10 07:49:59;;;;;;;3.95;2.45;;;;;;;26.49;48.40;100075.45;2906925;82;21004;-61
2021/09/10 07:54:02;;;;;;;7.08;2.60;;;;;;;26.59;47.84;100077.06;2906379;82;20963;-59
2021/09/10 07:58:05;;;;;;;2.12;1.92;;;;;;;26.54;47.65;100087.87;2906492;82;21023;-58
2021/09/10 08:02:08;;;;;;;3.22;2.47;;;;;;;26.63;48.31;100089.16;2890619;82;21035;-57
2021/09/10 08:06:10;;;;;;;2.37;2.15;;;;;;;26.73;48.23;100091.83;2857368;82;20948;-58
2021/09/10 08:10:33;;;;;;;6.78;3.10;;;;;;;26.86;47.85;100099.78;2857688;82;21004;-61
2021/09/10 08:14:35;;;;;;;6.08;2.30;;;;;;;27.07;47.54;100105.69;2857165;81;20968;-61
2021/09/10 08:18:40;;;;;;;7.50;3.65;;;;;;;27.20;47.14;100110.89;2856989;82;21047;-58
2021/09/10 08:22:43;;;;;;;11.33;2.40;;;;;;;27.27;47.13;100112.13;2857205;82;20999;-57
2021/09/10 08:32:17;;;;;;;5.70;2.45;;;;;;;27.38;47.39;100119.44;2857168;81;20984;-59
2021/09/10 08:36:22;;;;;;;6.75;2.67;;;;;;;27.66;48.71;100114.27;2857192;83;21019;-62
2021/09/10 08:40:25;;;;;;;4.92;2.62;;;;;;;27.88;48.04;100111.67;2856318;83;21039;-59
2021/09/10 08:44:28;;;;;;;4.95;2.77;;;;;;;27.97;45.79;100124.93;2854791;83;20932;-57
2021/09/10 08:48:31;;;;;;;2.23;1.80;;;;;;;27.98;46.70;100125.22;2855124;83;21015;-57
2021/09/10 08:52:33;;;;;;;8.50;2.72;;;;;;;28.07;46.62;100125.94;2854987;81;21067;-60
2021/09/10 08:56:54;;;;;;;8.18;3.67;;;;;;;28.15;46.69;100124.70;2832376;83;20992;-61
2021/09/10 09:01:00;;;;;;;5.90;2.12;;;;;;;28.08;46.43;100127.59;2854204;81;21043;-60
2021/09/10 09:05:01;;;;;;;4.97;2.95;;;;;;;28.07;46.83;100127.30;2854581;83;21008;-57
2021/09/10 09:09:05;;;;;;;3.67;2.40;;;;;;;28.07;46.78;100129.23;2854115;83;21133;-57
2021/09/10 09:13:15;;;;;;;4.10;2.67;;;;;;;28.13;46.54;100118.66;2854566;83;20976;-58
2021/09/10 09:17:43;;;;;;;6.87;2.62;;;;;;;28.19;47.15;100122.34;2854588;81;20968;-57
2021/09/10 09:21:45;;;;;;;5.75;2.87;;;;;;;28.35;46.87;100116.06;2875559;82;20999;-56
2021/09/10 09:25:49;;;;;;;4.80;2.52;;;;;;;28.40;47.02;100113.11;2906599;82;20988;-59
2021/09/10 09:29:56;;;;;;;3.52;2.42;;;;;;;28.47;47.38;100108.28;2906254;82;21054;-57
2021/09/10 09:33:59;;;;;;;8.20;2.40;;;;;;;28.53;47.11;100096.89;2906159;82;21038;-57
2021/09/10 09:38:14;;;;;;;4.97;2.27;;;;;;;28.65;47.37;100094.34;2906574;82;21019;-57
2021/09/10 09:42:35;;;;;;;6.97;2.95;;;;;;;28.86;46.26;100104.23;2906402;82;20968;-59
2021/09/10 09:46:37;;;;;;;5.08;2.60;;;;;;;29.07;46.02;100101.77;2906760;82;20952;-59
2021/09/10 09:50:43;;;;;;;4.00;2.58;;;;;;;29.07;46.02;100101.77;2906406;82;21023;-57
2021/09/10 09:54:44;;;;;;;3.02;2.37;;;;;;;29.12;46.12;100106.49;2906407;82;21059;-56
2021/09/10 09:58:49;;;;;;;7.90;2.92;;;;;;;29.16;45.45;100105.73;2906584;82;21019;-59
2021/09/10 10:02:51;;;;;;;7.05;2.45;;;;;;;29.22;46.63;100109.38;2905491;79;21007;-59
2021/09/10 10:06:55;;;;;;;3.75;2.02;;;;;;;29.25;44.92;100108.02;2906472;81;21015;-57
2021/09/10 10:15:29;;;;;;;4.62;2.27;;;;;;;29.28;45.21;100104.77;2907077;82;21046;-57
2021/09/10 10:19:39;;;;;;;6.78;2.75;;;;;;;29.26;44.61;100105.56;2906543;81;20937;-60
2021/09/10 10:24:35;;;;;;;5.28;2.27;;;;;;;29.34;44.60;100109.24;2905375;82;21058;-59
2021/09/10 10:29:16;;;;;;;;;;;;;;;29.45;46.17;100105.55;2841896;82;20992;-61
2021/09/10 10:33:29;;;;;;;3.33;2.15;;;;;;;29.53;44.12;100107.01;2905301;79;20063;-57
2021/09/10 10:37:39;;;;;;;8.40;3.02;;;;;;;29.60;44.34;100102.17;2880074;82;21032;-57
2021/09/10 10:41:53;;;;;;;3.65;1.95;;;;;;;29.64;45.79;100098.36;2865852;82;20995;-57
2021/09/10 10:46:14;;;;;;;15.78;4.03;;;;;;;29.70;45.10;100098.72;2906867;82;20979;-61
2021/09/10 10:50:39;;;;;;;3.72;2.08;;;;;;;29.77;44.68;100096.58;2908013;81;20991;-60
2021/09/10 10:54:44;;;;;;;9.43;3.42;;;;;;;29.89;44.41;100092.87;2846575;83;21058;-58
2021/09/10 10:59:19;;;;;;;4.08;2.30;;;;;;;29.96;43.76;100094.84;2818389;82;20963;-56
2021/09/10 11:03:27;;;;;;;4.53;2.60;;;;;;;30.00;44.59;100085.00;2847365;82;21018;-58
2021/09/10 11:07:31;;;;;;;5.28;2.67;;;;;;;30.10;45.89;100094.45;2873545;82;20983;-61
2021/09/10 11:11:34;;;;;;;7.65;2.47;;;;;;;30.15;43.60;100087.06;2854921;81;21011;-60
2021/09/10 11:15:39;;;;;;;4.20;2.30;;;;;;;30.25;42.27;100086.88;2882568;80;21000;-59
2021/09/10 11:19:51;;;;;;;;;;;;;;;30.33;43.43;100078.99;2895928;81;20991;-62
2021/09/10 11:23:57;;;;;;;3.58;2.30;;;;;;;30.37;43.77;100083.95;2891983;82;20095;-60
2021/09/10 11:28:17;;;;;;;5.75;2.42;;;;;;;30.44;44.26;100082.63;2900209;81;20930;-57
2021/09/10 11:32:26;;;;;;;4.03;2.27;;;;;;;30.44;43.87;100082.63;2943733;81;21021;-58
2021/09/10 11:36:30;;;;;;;6.92;2.27;;;;;;;30.43;42.86;100080.14;2921737;81;21015;-57
2021/09/10 11:41:15;;;;;;;2.98;2.17;;;;;;;30.42;43.19;100082.08;2919450;81;20968;-57
2021/09/10 11:45:17;;;;;;;33.18;5.42;;;;;;;30.59;43.33;100075.59;2892429;82;21015;-59
2021/09/10 11:49:26;;;;;;;14.45;3.87;;;;;;;30.72;42.60;100081.19;2884376;81;20932;-61
2021/09/10 11:53:34;;;;;;;6.42;2.90;;;;;;;30.76;43.08;100077.66;2851835;82;21045;-61
2021/09/10 11:57:38;;;;;;;78.92;17.32;;;;;;;30.71;41.71;100068.00;2832027;82;21084;-62
2021/09/10 12:01:42;;;;;;;7.28;2.83;;;;;;;30.73;44.08;100063.63;2861198;82;20976;-57
2021/09/10 12:05:46;;;;;;;10.00;3.67;;;;;;;30.74;41.96;100059.78;2851712;79;21038;-58
2021/09/10 12:10:03;;;;;;;17.30;4.72;;;;;;;30.74;44.37;100054.30;2880255;82;21030;-60
2021/09/10 12:14:16;;;;;;;11.97;2.95;;;;;;;30.73;42.89;100052.65;2848653;82;21034;-61
2021/09/10 12:18:22;;;;;;;4.50;2.47;;;;;;;30.74;43.26;100058.41;2908078;81;20983;-57
2021/09/10 12:22:59;;;;;;;3.83;3.00;;;;;;;30.80;42.07;100061.45;2860856;80;21039;-57
2021/09/10 12:27:01;;;;;;;8.00;1.87;;;;;;;30.75;43.80;100056.75;2858102;82;20990;-61
2021/09/10 12:31:09;;;;;;;3.85;2.20;;;;;;;30.85;41.73;100053.23;2864577;82;21040;-59
2021/09/10 12:35:12;;;;;;;13.88;3.60;;;;;;;30.95;42.18;100051.64;2863583;82;21038;-58
2021/09/10 12:39:17;;;;;;;3.87;2.22;;;;;;;31.00;42.39;100044.80;2884865;79;21042;-59
2021/09/10 12:43:22;;;;;;;4.37;1.85;;;;;;;31.03;40.73;100046.46;2868084;82;20987;-60
2021/09/10 12:47:25;;;;;;;5.92;2.58;;;;;;;31.12;40.75;100045.40;2854676;82;21062;-60
2021/09/10 12:51:26;;;;;;;3.58;2.72;;;;;;;31.17;43.78;100042.66;2860396;83;21038;-59
2021/09/10 12:55:36;;;;;;;10.48;3.27;;;;;;;31.16;40.91;100042.95;2869063;82;21031;-57
2021/09/10 12:59:38;;;;;;;6.42;2.17;;;;;;;31.04;40.61;100041.25;2881481;82;21075;-59
2021/09/10 13:03:40;;;;;;;2.25;1.67;;;;;;;31.00;41.54;100036.55;2919677;81;20967;-58
2021/09/10 13:07:43;;;;;;;4.28;2.62;;;;;;;31.08;43.52;100037.96;2919253;80;20999;-59
2021/09/10 13:11:50;;;;;;;4.85;3.37;;;;;;;31.18;42.83;100031.95;2881207;82;21006;-63
2021/09/10 13:15:53;;;;;;;9.65;3.67;;;;;;;31.22;42.00;100026.78;2868764;81;21056;-58
2021/09/10 13:20:24;;;;;;;4.60;2.22;;;;;;;31.28;41.15;100021.56;2878039;81;21011;-58
2021/09/10 13:24:26;;;;;;;21.02;4.55;;;;;;;31.31;40.26;100017.47;2865335;82;21026;-63
2021/09/10 13:28:38;;;;;;;10.70;3.45;;;;;;;31.39;42.78;100008.67;2884685;81;21075;-63
2021/09/10 14:12:08;;;;;;;3.40;2.67;;;;;;;31.28;41.26;99993.28;2801876;82;21113;-63
2021/09/10 14:16:32;;;;;;;5.17;2.20;;;;;;;31.12;42.27;99989.09;2882563;78;20999;-61
2021/09/10 14:20:34;;;;;;;4.08;2.50;;;;;;;31.12;43.33;99997.34;2882619;82;20979;-60
2021/09/10 14:25:22;;;;;;;42.67;8.70;;;;;;;31.19;43.63;99988.27;2882292;78;20975;-62
2021/09/10 14:29:24;;;;;;;7.08;2.80;;;;;;;31.22;44.32;99994.35;2882155;82;20982;-60
2021/09/10 14:33:26;;;;;;;5.20;2.83;;;;;;;31.19;42.72;99992.39;2882715;82;21038;-60
2021/09/10 14:37:59;;;;;;;9.65;3.47;;;;;;;31.17;42.55;99995.16;2882889;82;21248;-61
2021/09/10 14:42:01;;;;;;;3.47;2.30;;;;;;;31.17;43.78;100004.20;2880278;78;20972;-62
2021/09/10 14:46:27;;;;;;;3.70;2.40;;;;;;;31.15;42.59;99992.66;2866558;82;20969;-63
2021/09/10 14:50:30;;;;;;;4.78;2.45;;;;;;;31.06;43.05;100003.92;2876897;81;21028;-59
2021/09/10 14:55:17;;;;;;;4.45;3.27;;;;;;;31.00;42.86;100006.34;2876920;83;20977;-59
2021/09/10 14:59:32;;;;;;;3.37;2.12;;;;;;;30.95;42.94;100003.59;2876164;83;28211;-60
2021/09/10 15:03:26;;;;;;;3.30;1.82;;;;;;;30.89;42.93;100002.21;2875883;82;21049;-61
2021/09/10 15:07:30;;;;;;;4.20;2.25;;;;;;;30.83;43.22;99999.70;2886741;81;21085;-60
2021/09/10 15:11:34;;;;;;;3.62;2.92;;;;;;;30.76;43.54;100005.44;2887323;78;21027;-62
2021/09/10 15:15:37;;;;;;;11.28;2.65;;;;;;;30.67;43.40;100002.95;2886909;82;20990;-61
2021/09/10 15:19:46;;;;;;;3.00;1.87;;;;;;;30.64;44.49;100002.36;2887255;82;21034;-60
2021/09/10 15:23:50;;;;;;;2.40;1.82;;;;;;;30.57;43.51;100000.38;2886889;78;21066;-65
2021/09/10 15:28:52;;;;;;;5.28;2.90;;;;;;;30.47;43.80;100007.20;2891988;78;21041;-63
2021/09/10 15:32:59;;;;;;;3.72;2.52;;;;;;;30.34;43.51;100003.83;2887213;82;21026;-63
2021/09/10 15:37:03;;;;;;;12.20;2.70;;;;;;;30.19;44.09;100009.22;2887247;79;21019;-62
2021/09/10 15:41:10;;;;;;;5.10;3.50;;;;;;;30.04;44.12;100008.01;2887265;82;20980;-62
2021/09/10 15:45:17;;;;;;;5.47;3.00;;;;;;;29.95;44.64;100006.83;2887738;78;21026;-62
2021/09/10 15:49:22;;;;;;;4.15;3.10;;;;;;;29.88;45.27;100004.86;2887568;81;20975;-59
2021/09/10 15:53:27;;;;;;;5.03;3.27;;;;;;;29.74;45.45;100008.56;2887861;81;22383;-61
2021/09/10 15:57:33;;;;;;;4.55;3.00;;;;;;;29.58;45.55;100010.34;2887578;82;21014;-61
2021/09/10 16:01:38;;;;;;;12.15;4.50;;;;;;;29.42;45.92;100000.61;2887585;78;21061;-61
2021/09/10 16:05:40;;;;;;;2.80;2.50;;;;;;;29.30;46.11;99999.92;2887715;82;21030;-61
2021/09/10 16:09:42;;;;;;;5.05;2.55;;;;;;;29.15;46.61;100004.14;2887596;82;21081;-62
2021/09/10 16:13:45;;;;;;;12.33;4.03;;;;;;;29.02;47.19;100006.73;2887254;82;21003;-63
2021/09/10 16:17:47;;;;;;;4.85;3.42;;;;;;;28.91;47.55;100009.05;2887549;82;21010;-60
2021/09/10 16:21:50;;;;;;;48.33;12.98;;;;;;;28.75;48.07;100010.20;2887828;81;21058;-62
2021/09/10 16:25:52;;;;;;;10.53;4.15;;;;;;;28.64;48.66;100011.16;2883338;79;20972;-61
2021/09/10 16:30:08;;;;;;;10.10;4.58;;;;;;;28.50;49.12;100013.44;2883170;82;21059;-62
2021/09/10 16:34:10;;;;;;;44.00;8.00;;;;;;;28.34;49.66;100015.11;2883473;82;21066;-59
2021/09/10 16:38:13;;;;;;;11.93;4.80;;;;;;;28.16;50.77;100021.13;2883625;82;21035;-60
2021/09/10 16:42:21;;;;;;;14.50;5.65;;;;;;;27.97;50.94;100018.34;2883276;80;21016;-61
2021/09/10 16:46:24;;;;;;;14.47;5.37;;;;;;;27.76;51.36;100015.27;2883833;80;20933;-60
2021/09/10 16:50:26;;;;;;;27.85;7.25;;;;;;;27.60;51.62;100027.84;2883680;80;20952;-59
2021/09/10 16:54:36;;;;;;;19.42;6.08;;;;;;;27.43;52.06;100031.33;2883261;80;21052;-60
2021/09/10 16:58:38;;;;;;;56.40;11.63;;;;;;;27.30;52.89;100031.61;2883408;81;20968;-59
2021/09/10 17:02:40;;;;;;;174.15;34.23;;;;;;;27.14;52.79;100032.70;2883172;80;21059;-63
2021/09/10 17:06:42;;;;;;;48.08;10.32;;;;;;;27.01;53.25;100035.14;2882917;80;21011;-60
2021/09/10 17:11:50;;;;;;;30.68;7.47;;;;;;;26.86;53.61;100035.66;2882970;80;21000;-61
2021/09/10 17:15:52;;;;;;;43.75;10.78;;;;;;;26.69;53.92;100037.44;2874256;81;20973;-62
2021/09/10 17:20:10;;;;;;;20.20;8.00;;;;;;;26.43;54.33;100039.59;2913540;79;21044;-62
2021/09/10 17:24:16;;;;;;;94.10;21.33;;;;;;;26.25;54.66;100042.73;2906599;78;21035;-61
2021/09/10 17:28:18;;;;;;;56.25;16.32;;;;;;;26.05;55.09;100038.97;2931334;77;21102;-63
2021/09/10 17:32:20;;;;;;;82.92;19.52;;;;;;;25.89;55.30;100048.11;2919009;77;21000;-60
2021/09/10 17:36:22;;;;;;;84.52;18.17;;;;;;;25.72;55.70;100049.84;2880455;82;20989;-61
2021/09/10 17:41:11;;;;;;;61.08;13.45;;;;;;;25.56;56.28;100049.98;2879843;79;20961;-60
2021/09/10 17:45:13;;;;;;;30.20;9.53;;;;;;;25.40;56.33;100056.33;2879818;79;21013;-62
2021/09/10 17:49:24;;;;;;;25.00;9.83;;;;;;;25.22;56.73;100055.81;2850508;79;20993;-61
2021/09/10 17:53:26;;;;;;;22.65;6.72;;;;;;;25.10;56.76;100058.47;2880254;79;21009;-60
2021/09/10 17:57:29;;;;;;;11.97;6.53;;;;;;;24.95;56.94;100065.66;2879906;79;20954;-58
2021/09/10 18:01:31;;;;;;;8.98;4.83;;;;;;;24.81;57.30;100066.35;2880270;79;21807;-60
2021/09/10 18:05:37;;;;;;;77.25;14.55;;;;;;;24.68;57.96;100070.83;2880299;82;21020;-61
2021/09/10 18:09:40;;;;;;;23.05;6.78;;;;;;;24.51;58.04;100072.45;2880259;80;20973;-62
2021/09/10 18:13:44;;;;;;;18.57;9.20;;;;;;;24.28;59.88;100082.62;2860288;82;20996;-59
2021/09/10 18:17:47;;;;;;;18.32;8.40;;;;;;;23.94;60.68;100084.17;2833525;84;21016;-60
2021/09/10 18:21:51;;;;;;;32.40;12.98;;;;;;;23.74;61.27;100082.41;2833969;80;21004;-62
2021/09/10 18:25:53;;;;;;;20.02;10.23;;;;;;;23.49;62.31;100086.44;2833755;80;21039;-61
2021/09/10 18:29:54;;;;;;;18.70;9.80;;;;;;;23.18;63.31;100094.23;2833707;80;21279;-63
2021/09/10 18:33:57;;;;;;;23.65;11.40;;;;;;;23.02;63.40;100094.19;2848498;79;21062;-59
2021/09/10 18:37:59;;;;;;;20.62;9.13;;;;;;;22.95;63.33;100102.33;2880508;82;21375;-60
2021/09/10 18:42:02;;;;;;;95.10;22.22;;;;;;;22.87;63.23;100097.66;2880500;79;21036;-60
2021/09/10 18:51:21;;;;;;;9.95;6.65;;;;;;;22.75;63.55;100098.33;2861160;80;21016;-60
2021/09/10 18:55:24;;;;;;;33.05;8.30;;;;;;;22.67;63.92;100105.30;2879230;82;21008;-61
2021/09/10 18:59:26;;;;;;;15.23;7.15;;;;;;;22.61;63.98;100101.58;2865442;81;21057;-63
2021/09/10 19:03:46;;;;;;;9.23;5.87;;;;;;;22.60;64.25;100103.12;2865650;78;21038;-59
2021/09/10 19:07:50;;;;;;;29.02;8.80;;;;;;;22.55;64.46;100107.82;2864752;81;21085;-59
2021/09/10 19:45:33;;;;;;;13.32;8.10;;;;;;;22.35;65.08;100124.87;2839806;80;21106;-60
2021/09/10 19:50:06;;;;;;;12.03;7.72;;;;;;;22.29;65.11;100126.23;2862630;81;21003;-60
2021/09/10 19:54:09;;;;;;;21.48;7.12;;;;;;;22.23;65.19;100131.44;2862933;82;20972;-62
2021/09/10 19:58:24;;;;;;;9.43;6.58;;;;;;;22.21;65.00;100134.06;2862681;81;20960;-61
2021/09/10 20:02:26;;;;;;;15.63;6.53;;;;;;;22.15;64.70;100135.72;2844420;82;21137;-62
2021/09/10 20:06:34;;;;;;;11.20;5.58;;;;;;;22.14;64.60;100142.17;2814630;82;20995;-61
2021/09/10 20:10:36;;;;;;;7.87;5.70;;;;;;;22.11;64.42;100138.53;2849327;83;21130;-61
2021/09/10 20:14:45;;;;;;;7.22;6.05;;;;;;;22.08;64.36;100138.91;2855460;83;21039;-59
2021/09/10 20:18:47;;;;;;;7.53;5.03;;;;;;;22.02;64.18;100146.02;2855648;83;21055;-63
2021/09/10 20:23:15;;;;;;;10.25;5.28;;;;;;;21.96;64.15;100154.93;2855824;83;21031;-59
2021/09/10 20:27:17;;;;;;;5.60;5.00;;;;;;;21.90;64.35;100154.41;2856288;83;21015;-62
2021/09/10 20:31:22;;;;;;;7.60;4.45;;;;;;;21.80;64.44;100147.48;2855761;83;21023;-59
2021/09/10 20:35:24;;;;;;;8.95;4.95;;;;;;;21.73;64.17;100146.64;2855777;82;20968;-60
2021/09/10 20:39:28;;;;;;;7.55;4.30;;;;;;;21.72;64.06;100146.86;2856024;83;21043;-58
2021/09/10 20:43:31;;;;;;;5.73;4.20;;;;;;;21.68;63.99;100144.53;2856179;83;20992;-59
2021/09/10 20:47:40;;;;;;;5.22;4.47;;;;;;;21.67;63.93;100150.17;2849765;82;21273;-60
2021/09/10 20:51:42;;;;;;;16.95;6.53;;;;;;;21.65;63.89;100149.00;2814969;83;20976;-59
2021/09/10 20:55:44;;;;;;;17.15;5.53;;;;;;;21.64;63.67;100154.61;2815134;83;21094;-63
2021/09/10 20:59:51;;;;;;;12.25;5.28;;;;;;;21.59;63.74;100151.14;2814580;83;21035;-60
2021/09/10 21:03:53;;;;;;;10.98;5.08;;;;;;;21.55;63.74;100152.59;2815167;83;20976;-61